• Join FlightAware (Why Join?)
  • Login
  • US Flag 
11:43AM EDT


 

Airport Tracker/Info


-or-


 

Live Flight TrackerFlight Track Log ✈ SWA559 ✈ 20-Apr-2013 ✈ KLAX - KDEN

Flight Track Log - Related Links

Times and Time Zones

All times are in EDT time to prevent confusion due to time zone crossing. See the SWA559 flight status page for this flight to view local times or setup timezone preferences in your user account.

Time Position Orientation Groundspeed Altitude Reporting Facility
EDT Latitude Longitude Course Direction KTS MPH feet Rate Location/Type
02:04PM 33.9450 -118.4772 58° Northeast 191 220 2,200  Level Los Angeles Center
02:05PM 33.9336 -118.5611 261° West 260 299 4,800 2,880 Climbing Los Angeles Center
02:06PM 33.8744 -118.5947 205° Southwest 281 323 8,200 2,820 Climbing Los Angeles Center
02:07PM 33.8783 -118.5081 87° East 299 344 10,700 2,340 Climbing Los Angeles Center
02:08PM 33.9383 -118.4261 49° Northeast 311 358 13,100 2,460 Climbing Los Angeles Center
02:09PM 33.9928 -118.3286 56° Northeast 342 394 15,900 2,460 Climbing Los Angeles Center
02:10PM 34.3144 -117.6929 58° Northeast  Level Estimated
02:11PM 34.0500 -118.2281 55° Northeast 355 409 18,200  Level Los Angeles Center
02:12PM 34.1092 -118.1231 56° Northeast 371 427 20,500 1,920 Climbing Los Angeles Center
02:13PM 34.1708 -118.0131 56° Northeast 390 449 22,200 1,920 Climbing Los Angeles Center
02:14PM 34.2361 -117.8978 56° Northeast 410 472 24,500 1,860 Climbing Los Angeles Center
02:15PM 34.3228 -117.7697 51° Northeast 411 473 26,100 1,440 Climbing Los Angeles Center
02:16PM 34.3892 -117.6739 50° Northeast 426 490 27,600 1,500 Climbing Los Angeles Center
02:17PM 34.4828 -117.5406 50° Northeast 434 499 29,300 1,500 Climbing Los Angeles Center
02:18PM 34.5611 -117.4264 50° Northeast 441 507 30,800 1,560 Climbing Los Angeles Center
02:19PM 34.6383 -117.3133 50° Northeast 440 506 32,600 1,380 Climbing Los Angeles Center
02:20PM 34.7144 -117.2022 50° Northeast 435 501 33,700 960 Climbing Los Angeles Center
02:21PM 34.7917 -117.0897 50° Northeast 435 501 34,700 600 Climbing Los Angeles Center
02:22PM 34.8856 -116.9525 50° Northeast 441 507 35,000 120 Climbing Los Angeles Center
02:23PM 34.9631 -116.8389 50° Northeast 441 507 35,000  Level Los Angeles Center
02:24PM 35.0408 -116.7214 51° Northeast 444 511 35,000  Level Los Angeles Center
02:25PM 35.1214 -116.6050 50° Northeast 447 514 35,000  Level Los Angeles Center
02:26PM 35.2008 -116.4881 50° Northeast 449 517 35,000  Level Los Angeles Center
02:27PM 35.2956 -116.3494 50° Northeast 445 512 35,000  Level Los Angeles Center
02:28PM 35.3739 -116.2308 51° Northeast 447 514 35,000  Level Los Angeles Center
02:29PM 35.4503 -116.1131 51° Northeast 445 512 35,000  Level Los Angeles Center
02:30PM 35.5308 -115.9947 50° Northeast 451 519 35,000  Level Los Angeles Center
02:31PM 35.6131 -115.8722 50° Northeast 450 518 35,000  Level Los Angeles Center
02:32PM 35.6911 -115.7528 51° Northeast 451 519 35,000  Level Los Angeles Center
02:33PM 35.7858 -115.6103 51° Northeast 450 518 35,000  Level Los Angeles Center
02:34PM 35.8644 -115.4911 51° Northeast 452 520 35,000 360 Level Los Angeles Center
02:35PM 35.9394 -115.3753 51° Northeast 442 509 35,800 900 Climbing Los Angeles Center
02:36PM 36.0147 -115.2603 51° Northeast 435 501 36,900 540 Climbing Los Angeles Center
02:37PM 36.0867 -115.1358 54° Northeast 447 514 37,000  Climbing Los Angeles Center
02:38PM 36.1425 -114.9536 69° East 471 542 37,000  Level Los Angeles Center
02:40PM 36.1933 -114.8044 67° East 472 543 37,000  Level Los Angeles Center
02:41PM 36.2456 -114.6572 66° East 470 541 37,000  Level Los Angeles Center
02:42PM 36.2978 -114.5083 66° East 472 543 37,000  Level Los Angeles Center
02:43PM 36.3497 -114.3600 66° East 471 542 37,000  Level Los Angeles Center
02:44PM 36.4108 -114.1817 67° East 469 540 37,000  Level Los Angeles Center
02:45PM 36.4622 -114.0336 67° East 468 539 37,000  Level Los Angeles Center
02:46PM 36.5117 -113.8903 67° East 476 548 37,000  Level Los Angeles Center
02:47PM 36.5628 -113.7408 67° East 474 545 37,000  Level Los Angeles Center
02:48PM 36.6239 -113.5614 67° East 472 543 37,000  Level Los Angeles Center
02:49PM 36.6744 -113.4114 67° East 472 543 37,000  Level Los Angeles Center
02:50PM 36.7253 -113.2614 67° East 472 543 37,000  Level Los Angeles Center
02:51PM 36.7750 -113.1133 67° East 469 540 37,000  Level Los Angeles Center
02:52PM 36.8242 -112.9656 67° East 466 536 37,000  Level Los Angeles Center
02:53PM 36.8736 -112.8186 67° East 464 534 37,000  Level Los Angeles Center
02:54PM 36.9325 -112.6406 67° East 466 536 37,000  Level Los Angeles Center
02:55PM 36.9808 -112.4919 68° East 465 535 37,000  Level Los Angeles Center
02:56PM 37.0297 -112.3431 68° East 465 535 37,000  Level Los Angeles Center
02:57PM 37.0783 -112.1939 68° East 467 537 37,000  Level Los Angeles Center
02:58PM 37.1272 -112.0453 68° East 465 535 37,000  Level Los Angeles Center
02:59PM 37.1858 -111.8650 68° East 467 537 37,000  Level Los Angeles Center
03:00PM 37.2069 -111.8022 67° East 470 541 37,000  Level Denver Center
03:01PM 37.2522 -111.6531 69° East 465 535 37,000  Level Denver Center
03:02PM 37.3000 -111.5014 68° East 468 539 37,000  Level Denver Center
03:03PM 37.3483 -111.3475 68° East 474 545 37,000  Level Denver Center
03:04PM 37.3972 -111.1953 68° East 473 544 37,000  Level Denver Center
03:05PM 37.4442 -111.0439 69° East 466 536 37,000  Level Denver Center
03:06PM 37.4903 -110.8939 69° East 461 531 37,000  Level Denver Center
03:07PM 37.5442 -110.7189 69° East 449 517 37,000  Level Denver Center
03:08PM 37.5886 -110.5717 69° East 450 518 37,000  Level Denver Center
03:09PM 37.6317 -110.4294 69° East 451 519 37,000  Level Denver Center
03:10PM 37.6828 -110.2636 69° East 453 521 37,000  Level Denver Center
03:11PM 37.7331 -110.1264 65° Northeast 450 518 37,000  Level Denver Center
03:12PM 37.7867 -109.9878 64° Northeast 455 524 37,000  Level Denver Center
03:13PM 37.8500 -109.8242 64° Northeast 462 532 37,000  Level Denver Center
03:14PM 37.9036 -109.6831 64° Northeast 464 534 37,000  Level Denver Center
03:15PM 37.9669 -109.5169 64° Northeast 467 537 37,000  Level Denver Center
03:16PM 38.0203 -109.3747 65° Northeast 465 535 37,000  Level Denver Center
03:17PM 38.0806 -109.2150 64° Northeast 466 536 37,000  Level Denver Center
03:18PM 38.1342 -109.0683 65° Northeast 475 547 37,000  Level Denver Center
03:19PM 38.1964 -108.9006 65° Northeast 473 544 37,000  Level Denver Center
03:20PM 38.2503 -108.7564 65° Northeast 472 543 37,000  Level Denver Center
03:21PM 38.3036 -108.6114 65° Northeast 474 545 37,000  Level Denver Center
03:22PM 38.3661 -108.4419 65° Northeast 476 548 37,000  Level Denver Center
03:23PM 38.4189 -108.2983 65° Northeast 471 542 37,000  Level Denver Center
03:24PM 38.4806 -108.1289 65° Northeast 473 544 37,000  Level Denver Center
03:25PM 38.5322 -107.9850 65° Northeast 471 542 37,000  Level Denver Center
03:27PM 38.5956 -107.8035 66° East  Level FlightAware Approximate
03:27PM 38.6450 -107.6708 66° East 470 541 37,000  Level Denver Center
03:28PM 38.6975 -107.5242 65° Northeast 473 544 37,000  Level Denver Center
03:29PM 38.7564 -107.3556 66° East 469 540 37,000  Level Denver Center
03:30PM 38.8075 -107.2089 66° East 472 543 37,000 -120 Level Denver Center
03:31PM 38.8578 -107.0661 66° East 474 545 36,800 -660 Descending Denver Center
03:32PM 38.9181 -106.8919 66° East 471 542 35,700 -1,020 Descending Denver Center
03:33PM 38.9683 -106.7483 66° East 463 533 34,800 -1,020 Descending Denver Center
03:34PM 39.0239 -106.5836 66° East 452 520 33,700 -1,020 Descending Denver Center
03:35PM 39.0731 -106.4436 66° East 450 518 32,800 -1,020 Descending Denver Center
03:36PM 39.1289 -106.2792 66° East 450 518 31,700 -1,800 Descending Denver Center
03:37PM 39.1747 -106.1389 67° East 450 518 29,200 -2,400 Descending Denver Center
03:38PM 39.2231 -105.9961 66° East 434 499 26,800 -2,340 Descending Denver Center
03:40PM 39.2678 -105.8606 67° East 411 473 24,500 -2,220 Descending Denver Center
03:41PM 39.3119 -105.7311 66° East 394 453 22,300 -2,160 Descending Denver Center
03:42PM 39.3522 -105.6064 67° East 377 434 20,100 -1,680 Descending Denver Center
03:43PM 39.3953 -105.4733 67° East 371 427 19,000 -1,260 Descending Denver Center
03:44PM 39.4025 -105.3319 86° East 372 428 17,600 -1,260 Descending Denver Center
03:45PM 39.3886 -105.2119 98° East 340 391 16,500 -1,080 Descending Denver Center
03:46PM 39.3617 -105.1083 109° East 306 352 15,400 -1,020 Descending Denver Center
03:47PM 39.3375 -105.0033 107° East 284 327 14,500 -1,140 Descending Denver Center
03:48PM 39.3572 -104.9139 74° East 263 303 13,100 -1,320 Descending Denver Center
03:49PM 39.3911 -104.8325 62° Northeast 258 297 11,900 -1,140 Descending Denver Center
03:50PM 39.4272 -104.7472 61° Northeast 251 289 10,800 -900 Descending Denver Center
03:51PM 39.4817 -104.6928 38° Northeast 256 295 10,100 -420 Descending Denver Center
03:52PM 39.5369 -104.6458 33° Northeast 243 280 10,000  Descending Denver Center
03:53PM 39.6094 -104.6447 North 239 275 10,100 -540 Climbing Denver Center
03:54PM 39.6778 -104.6436 North 245 282 8,900 -1,080 Descending Denver Center
03:55PM 39.7333 -104.6436 360° North 190 219 8,000 -1,200 Descending Denver Center
03:56PM 39.7825 -104.6431 360° North 168 193 6,500 -1,200 Descending Denver Center
03:57PM 39.8244 -104.6417 North 154 177 5,600 -540 Descending Denver Center
03:58PM 39.8519 -104.6425 359° North 117 135 5,400 -240 Descending Denver Center
04:00PM 39.8500 -104.6667 North  Level FlightAware Approximate
04:07PM 39.8617 -104.6732 North  Level Estimated
04:08PM 39.8617 -104.6732 North  Level Estimated